createdAt,value
2018-04-25T00:00:13.974Z,18.83
2018-04-25T00:02:40.598Z,20.25
2018-04-25T00:05:07.286Z,19.02
2018-04-25T00:07:33.963Z,21.10
2018-04-25T00:10:04.866Z,19.05
2018-04-25T00:12:31.619Z,20.70
2018-04-25T00:14:59.146Z,22.45
2018-04-25T00:17:25.798Z,21.45
2018-04-25T00:19:52.566Z,19.83
2018-04-25T00:22:20.291Z,18.90
2018-04-25T00:24:46.913Z,19.25
2018-04-25T00:27:13.997Z,20.48
2018-04-25T00:29:40.610Z,20.60
2018-04-25T00:32:07.330Z,19.48
2018-04-25T00:34:33.974Z,20.67
2018-04-25T00:37:01.461Z,20.52
2018-04-25T00:39:29.458Z,17.40
2018-04-25T00:41:56.186Z,18.02
2018-04-25T00:44:23.090Z,18.55
2018-04-25T00:46:49.833Z,19.33
2018-04-25T00:49:16.996Z,19.25
2018-04-25T00:51:44.433Z,18.65
2018-04-25T00:54:11.131Z,18.37
2018-04-25T00:56:37.818Z,18.90
2018-04-25T00:59:04.518Z,18.08
2018-04-25T01:01:31.203Z,18.65
2018-04-25T01:03:58.166Z,17.20
2018-04-25T01:06:24.842Z,18.95
2018-04-25T01:08:52.259Z,16.80
2018-04-25T01:11:19.535Z,17.70
2018-04-25T01:13:46.190Z,16.70
2018-04-25T01:16:12.840Z,16.80
2018-04-25T01:18:39.508Z,14.63
2018-04-25T01:21:06.154Z,15.20
2018-04-25T01:23:33.716Z,13.70
2018-04-25T01:26:06.093Z,14.90
2018-04-25T01:28:35.216Z,13.68
2018-04-25T01:31:11.862Z,13.98
2018-04-25T01:33:41.770Z,13.88
2018-04-25T01:36:14.239Z,11.68
2018-04-25T01:38:45.787Z,11.82
2018-04-25T01:41:14.036Z,11.30
2018-04-25T01:43:46.519Z,10.80
2018-04-25T01:46:19.962Z,11.82
2018-04-25T01:49:02.423Z,11.50
2018-04-25T01:51:35.919Z,10.90
2018-04-25T01:54:08.394Z,10.75
2018-04-25T01:56:45.129Z,10.45
2018-04-25T01:59:17.637Z,10.15
2018-04-25T02:01:44.030Z,10.07
2018-04-25T02:04:15.790Z,10.35
2018-04-25T02:06:42.450Z,9.65
2018-04-25T02:09:13.138Z,8.77
2018-04-25T02:11:39.890Z,8.60
2018-04-25T02:14:07.527Z,8.88
2018-04-25T02:16:35.508Z,9.93
2018-04-25T02:19:02.152Z,8.65
2018-04-25T02:21:28.816Z,7.75
2018-04-25T02:23:56.225Z,8.35
2018-04-25T02:26:22.918Z,8.10
2018-04-25T02:28:49.578Z,7.60
2018-04-25T02:31:16.926Z,8.63
2018-04-25T02:33:43.575Z,7.85
2018-04-25T02:36:10.635Z,8.85
2018-04-25T02:38:37.349Z,7.53
2018-04-25T02:41:03.962Z,7.78
2018-04-25T02:43:30.641Z,6.65
2018-04-25T02:45:57.293Z,7.05
2018-04-25T02:48:24.021Z,7.28
2018-04-25T02:50:55.273Z,7.40
2018-04-25T02:53:21.926Z,7.82
2018-04-25T02:55:48.606Z,7.30
2018-04-25T02:58:15.279Z,6.80
2018-04-25T03:00:42.431Z,6.60
2018-04-25T03:03:09.083Z,6.60
2018-04-25T03:05:35.810Z,6.05
2018-04-25T03:08:02.993Z,6.78
2018-04-25T03:10:29.622Z,6.85
2018-04-25T03:12:56.346Z,7.50
2018-04-25T03:15:23.049Z,6.55
2018-04-25T03:17:50.306Z,6.68
2018-04-25T03:20:21.512Z,7.53
2018-04-25T03:22:48.222Z,7.07
2018-04-25T03:25:15.575Z,7.37
2018-04-25T03:27:42.209Z,6.78
2018-04-25T03:30:08.833Z,7.68
2018-04-25T03:32:35.551Z,7.40
2018-04-25T03:35:02.228Z,7.10
2018-04-25T03:37:28.874Z,7.35
2018-04-25T03:39:55.490Z,7.60
2018-04-25T03:42:22.125Z,8.20
2018-04-25T03:44:49.280Z,8.30
2018-04-25T03:47:16.673Z,8.05
2018-04-25T03:49:44.046Z,8.77
2018-04-25T03:52:10.690Z,8.35
2018-04-25T03:54:37.355Z,7.75
2018-04-25T03:57:04.026Z,8.68
2018-04-25T03:59:32.442Z,8.93
2018-04-25T04:01:59.127Z,7.37
2018-04-25T04:04:26.511Z,7.85
2018-04-25T04:06:53.190Z,8.75
2018-04-25T04:09:19.830Z,7.68
2018-04-25T04:11:47.295Z,8.60
2018-04-25T04:14:13.969Z,7.25
2018-04-25T04:16:41.288Z,8.40
2018-04-25T04:19:08.281Z,8.25
2018-04-25T04:21:36.826Z,8.32
2018-04-25T04:24:07.527Z,7.95
2018-04-25T04:26:34.242Z,9.20
2018-04-25T04:29:00.869Z,8.50
2018-04-25T04:31:27.577Z,8.27
2018-04-25T04:33:54.270Z,8.20
2018-04-25T04:36:21.065Z,8.27
2018-04-25T04:38:47.682Z,9.38
2018-04-25T04:41:14.454Z,8.48
2018-04-25T04:43:41.094Z,9.20
2018-04-25T04:46:07.750Z,8.38
2018-04-25T04:48:35.028Z,8.35
2018-04-25T04:51:03.419Z,9.13
2018-04-25T04:53:30.523Z,8.43
2018-04-25T04:56:02.268Z,8.15
2018-04-25T04:58:29.718Z,9.25
2018-04-25T05:01:02.231Z,8.68
2018-04-25T05:03:28.949Z,8.82
2018-04-25T05:05:55.738Z,8.88
2018-04-25T05:08:22.465Z,9.15
2018-04-25T05:10:49.022Z,9.35
2018-04-25T05:13:16.634Z,9.70
2018-04-25T05:15:43.274Z,9.18
2018-04-25T05:18:09.931Z,9.68
2018-04-25T05:20:36.973Z,9.50
2018-04-25T05:23:04.338Z,10.38
2018-04-25T05:25:30.949Z,9.98
2018-04-25T05:27:58.211Z,9.70
2018-04-25T05:30:29.736Z,9.20
2018-04-25T05:32:56.378Z,8.60
2018-04-25T05:35:23.940Z,7.82
2018-04-25T05:37:50.662Z,8.65
2018-04-25T05:40:18.506Z,7.18
2018-04-25T05:42:45.142Z,6.15
2018-04-25T05:45:12.717Z,5.55
2018-04-25T05:47:39.760Z,4.62
2018-04-25T05:50:06.552Z,4.80
2018-04-25T05:52:37.319Z,4.43
2018-04-25T05:55:08.166Z,4.03
2018-04-25T05:57:34.858Z,3.62
2018-04-25T06:00:01.515Z,3.95
2018-04-25T06:02:28.175Z,4.20
2018-04-25T06:04:54.878Z,4.43
2018-04-25T06:07:21.672Z,5.05
2018-04-25T06:09:48.790Z,6.68
2018-04-25T06:12:16.074Z,5.22
2018-04-25T06:14:42.970Z,5.80
2018-04-25T06:17:10.070Z,6.05
2018-04-25T06:19:36.887Z,5.72
2018-04-25T06:22:04.020Z,6.07
2018-04-25T06:24:30.930Z,6.55
2018-04-25T06:26:59.205Z,6.50
2018-04-25T06:29:29.678Z,6.28
2018-04-25T06:31:56.980Z,6.05
2018-04-25T06:34:23.895Z,5.78
2018-04-25T06:36:50.694Z,6.20
2018-04-25T06:39:24.833Z,6.03
2018-04-25T06:41:51.909Z,5.25
2018-04-25T06:44:18.702Z,5.32
2018-04-25T06:46:45.524Z,6.53
2018-04-25T06:49:12.320Z,7.20
2018-04-25T06:51:39.144Z,6.80
2018-04-25T06:54:05.881Z,6.68
2018-04-25T06:56:32.805Z,7.32
2018-04-25T06:58:59.523Z,7.55
2018-04-25T07:01:26.270Z,6.62
2018-04-25T07:03:53.080Z,6.40
2018-04-25T07:06:19.841Z,6.07
2018-04-25T07:08:46.656Z,4.87
2018-04-25T07:11:13.448Z,4.55
2018-04-25T07:13:40.102Z,4.20
2018-04-25T07:16:06.733Z,3.58
2018-04-25T07:18:33.366Z,3.47
2018-04-25T07:20:59.988Z,4.25
2018-04-25T07:23:26.621Z,4.50
2018-04-25T07:25:53.234Z,4.50
2018-04-25T07:28:19.878Z,3.42
2018-04-25T07:30:46.513Z,3.33
2018-04-25T07:33:13.145Z,4.12
2018-04-25T07:35:39.766Z,3.70
2018-04-25T07:38:06.400Z,3.28
2018-04-25T07:40:33.015Z,3.80
2018-04-25T07:42:59.643Z,3.50
2018-04-25T07:45:26.265Z,3.70
2018-04-25T07:47:52.882Z,4.15
2018-04-25T07:50:19.521Z,3.67
2018-04-25T07:52:46.141Z,3.58
2018-04-25T07:55:12.783Z,4.05
2018-04-25T07:57:39.435Z,3.78
2018-04-25T08:00:06.043Z,3.33
2018-04-25T08:02:32.668Z,4.40
2018-04-25T08:04:59.317Z,3.75
2018-04-25T08:07:25.928Z,5.12
2018-04-25T08:09:52.665Z,4.40
2018-04-25T08:12:25.245Z,5.35
2018-04-25T08:14:57.811Z,4.90
2018-04-25T08:17:30.381Z,4.53
2018-04-25T08:20:08.894Z,4.37
2018-04-25T08:22:35.531Z,4.43
2018-04-25T08:25:02.163Z,4.10
2018-04-25T08:27:28.793Z,3.95
2018-04-25T08:29:55.406Z,3.90
2018-04-25T08:32:22.060Z,4.80
2018-04-25T08:34:48.675Z,5.15
2018-04-25T08:37:15.310Z,4.05
2018-04-25T08:39:41.955Z,3.85
2018-04-25T08:42:08.590Z,3.95
2018-04-25T08:44:35.239Z,3.67
2018-04-25T08:47:01.874Z,4.07
2018-04-25T08:49:28.499Z,3.83
2018-04-25T08:51:55.699Z,3.90
2018-04-25T08:54:22.431Z,4.20
2018-04-25T08:56:49.057Z,4.32
2018-04-25T08:59:15.750Z,4.43
2018-04-25T09:01:42.329Z,4.12
2018-04-25T09:04:08.954Z,4.20
2018-04-25T09:06:35.580Z,4.87
2018-04-25T09:09:03.208Z,5.47
2018-04-25T09:11:29.813Z,7.05
2018-04-25T09:13:56.442Z,4.35
2018-04-25T09:16:23.053Z,3.95
2018-04-25T09:18:49.685Z,3.25
2018-04-25T09:21:16.318Z,4.22
2018-04-25T09:23:42.965Z,3.95
2018-04-25T09:26:09.601Z,3.92
2018-04-25T09:28:36.232Z,4.22
2018-04-25T09:31:02.879Z,4.30
2018-04-25T09:33:29.518Z,3.58
2018-04-25T09:35:56.166Z,4.43
2018-04-25T09:38:22.806Z,4.37
2018-04-25T09:40:49.459Z,4.47
2018-04-25T09:43:16.068Z,4.72
2018-04-25T09:45:42.743Z,3.85
2018-04-25T09:48:09.464Z,3.40
2018-04-25T09:50:36.510Z,3.50
2018-04-25T09:53:03.139Z,3.47
2018-04-25T09:55:29.786Z,3.80
2018-04-25T09:57:56.464Z,3.45
2018-04-25T10:00:23.074Z,2.55
2018-04-25T10:02:55.658Z,2.20
2018-04-25T10:05:23.089Z,2.50
2018-04-25T10:07:49.750Z,2.37
2018-04-25T10:10:16.391Z,2.80
2018-04-25T10:12:43.007Z,2.30
2018-04-25T10:15:10.646Z,2.40
2018-04-25T10:17:37.253Z,2.10
2018-04-25T10:20:03.903Z,2.58
2018-04-25T10:22:30.565Z,3.20
2018-04-25T10:24:57.198Z,2.50
2018-04-25T10:27:23.866Z,2.90
2018-04-25T10:29:50.534Z,2.85
2018-04-25T10:32:17.158Z,3.28
2018-04-25T10:34:44.407Z,2.60
2018-04-25T10:37:11.998Z,3.00
2018-04-25T10:39:43.479Z,3.10
2018-04-25T10:42:10.115Z,2.75
2018-04-25T10:44:36.770Z,3.30
2018-04-25T10:47:04.585Z,2.90
2018-04-25T10:49:31.262Z,2.55
2018-04-25T10:51:57.921Z,2.40
2018-04-25T10:54:28.922Z,3.00
2018-04-25T10:56:55.777Z,2.65
2018-04-25T10:59:23.273Z,2.65
2018-04-25T11:01:50.830Z,2.03
2018-04-25T11:04:20.381Z,2.50
2018-04-25T11:06:47.699Z,2.53
2018-04-25T11:09:14.509Z,3.33
2018-04-25T11:11:41.158Z,3.65
2018-04-25T11:14:07.882Z,2.70
2018-04-25T11:16:34.508Z,3.37
2018-04-25T11:19:01.287Z,2.75
2018-04-25T11:21:27.933Z,3.80
2018-04-25T11:23:54.649Z,3.37
2018-04-25T11:26:22.072Z,3.05
2018-04-25T11:28:49.185Z,3.15
2018-04-25T11:31:16.031Z,3.15
2018-04-25T11:33:42.672Z,3.10
2018-04-25T11:36:09.317Z,3.22
2018-04-25T11:38:40.319Z,3.60
2018-04-25T11:41:06.934Z,3.30
2018-04-25T11:43:33.573Z,3.30
2018-04-25T11:46:00.213Z,3.80
2018-04-25T11:48:26.846Z,3.30
2018-04-25T11:50:53.514Z,3.30
2018-04-25T11:53:20.143Z,3.70
2018-04-25T11:55:46.777Z,3.78
2018-04-25T11:58:13.515Z,3.42
2018-04-25T12:00:40.179Z,3.40
2018-04-25T12:03:06.815Z,4.00
2018-04-25T12:05:33.462Z,3.90
2018-04-25T12:08:00.187Z,3.70
2018-04-25T12:10:26.817Z,3.55
2018-04-25T12:12:53.457Z,4.00
2018-04-25T12:15:20.088Z,4.75
2018-04-25T12:17:46.725Z,4.30
2018-04-25T12:20:13.346Z,4.35
2018-04-25T12:22:39.977Z,4.10
2018-04-25T12:25:06.605Z,3.80
2018-04-25T12:27:33.218Z,4.65
2018-04-25T12:29:59.863Z,4.05
2018-04-25T12:32:26.488Z,4.15
2018-04-25T12:34:53.121Z,4.18
2018-04-25T12:37:19.805Z,4.40
2018-04-25T12:39:46.435Z,3.87
2018-04-25T12:42:13.091Z,4.40
2018-04-25T12:44:39.737Z,3.70
2018-04-25T12:47:06.364Z,3.65
2018-04-25T12:49:33.099Z,3.75
2018-04-25T12:51:59.737Z,4.05
2018-04-25T12:54:26.392Z,3.70
2018-04-25T12:56:53.006Z,3.70
2018-04-25T12:59:19.633Z,3.42
2018-04-25T13:01:46.355Z,3.70
2018-04-25T13:04:12.910Z,4.30
2018-04-25T13:06:39.562Z,3.70
2018-04-25T13:09:06.295Z,3.40
2018-04-25T13:11:32.947Z,3.80
2018-04-25T13:13:59.577Z,4.30
2018-04-25T13:16:26.234Z,3.60
2018-04-25T13:18:52.875Z,4.00
2018-04-25T13:21:19.595Z,4.50
2018-04-25T13:23:46.142Z,3.80
2018-04-25T13:26:12.778Z,4.43
2018-04-25T13:28:39.387Z,4.00
2018-04-25T13:31:06.042Z,4.95
2018-04-25T13:33:32.666Z,4.97
2018-04-25T13:35:59.311Z,4.35
2018-04-25T13:38:25.930Z,4.53
2018-04-25T13:40:52.572Z,5.10
2018-04-25T13:43:19.210Z,5.35
2018-04-25T13:45:45.841Z,4.78
2018-04-25T13:48:16.267Z,5.03
2018-04-25T13:50:42.905Z,5.12
2018-04-25T13:53:09.595Z,5.20
2018-04-25T13:55:36.234Z,4.90
2018-04-25T13:58:02.849Z,5.45
2018-04-25T14:00:29.539Z,5.00
2018-04-25T14:02:56.155Z,4.45
2018-04-25T14:05:22.832Z,4.57
2018-04-25T14:07:49.442Z,5.60
2018-04-25T14:10:16.064Z,5.03
2018-04-25T14:12:42.707Z,4.35
2018-04-25T14:15:09.325Z,4.45
2018-04-25T14:17:36.543Z,4.85
2018-04-25T14:20:03.100Z,4.28
2018-04-25T14:22:29.751Z,4.75
2018-04-25T14:24:56.375Z,4.75
2018-04-25T14:27:23.010Z,5.20
2018-04-25T14:29:49.660Z,5.10
2018-04-25T14:32:16.290Z,4.65
2018-04-25T14:34:42.923Z,5.62
2018-04-25T14:37:09.547Z,5.00
2018-04-25T14:39:36.175Z,4.85
2018-04-25T14:42:02.850Z,5.53
2018-04-25T14:44:29.490Z,5.28
2018-04-25T14:46:56.109Z,6.05
2018-04-25T14:49:22.746Z,5.90
2018-04-25T14:51:49.375Z,5.45
2018-04-25T14:54:16.003Z,5.70
2018-04-25T14:56:42.633Z,5.35
2018-04-25T14:59:09.310Z,6.32
2018-04-25T15:01:35.965Z,6.50
2018-04-25T15:04:02.589Z,6.35
2018-04-25T15:06:29.870Z,6.45
2018-04-25T15:08:56.537Z,6.50
2018-04-25T15:11:23.160Z,4.80
2018-04-25T15:13:49.811Z,4.47
2018-04-25T15:16:16.437Z,4.47
2018-04-25T15:18:43.063Z,4.65
2018-04-25T15:21:09.721Z,4.62
2018-04-25T15:23:36.353Z,5.60
2018-04-25T15:26:02.992Z,4.90
2018-04-25T15:28:29.612Z,4.80
2018-04-25T15:30:56.256Z,5.55
2018-04-25T15:33:22.943Z,5.15
2018-04-25T15:35:49.603Z,5.22
2018-04-25T15:38:16.230Z,4.82
2018-04-25T15:40:42.868Z,4.85
2018-04-25T15:43:09.498Z,5.00
2018-04-25T15:45:36.130Z,5.60
2018-04-25T15:48:02.776Z,4.25
2018-04-25T15:50:29.414Z,4.30
2018-04-25T15:52:56.055Z,4.70
2018-04-25T15:55:22.877Z,3.90
2018-04-25T15:57:49.512Z,3.90
2018-04-25T16:00:16.130Z,4.97
2018-04-25T16:02:42.768Z,4.30
2018-04-25T16:05:09.386Z,4.72
2018-04-25T16:07:36.037Z,4.20
2018-04-25T16:10:02.686Z,4.80
2018-04-25T16:12:29.333Z,4.90
2018-04-25T16:14:55.940Z,5.32
2018-04-25T16:17:22.567Z,4.65
2018-04-25T16:19:49.194Z,4.40
2018-04-25T16:22:15.848Z,4.22
2018-04-25T16:24:42.568Z,4.10
2018-04-25T16:27:09.140Z,4.80
2018-04-25T16:29:35.818Z,4.60
2018-04-25T16:32:02.459Z,5.50
2018-04-25T16:34:29.099Z,4.55
2018-04-25T16:36:55.747Z,4.70
2018-04-25T16:39:22.379Z,4.50
2018-04-25T16:41:49.029Z,4.90
2018-04-25T16:44:16.147Z,4.43
2018-04-25T16:46:42.777Z,4.85
2018-04-25T16:49:09.412Z,5.28
2018-04-25T16:51:36.018Z,4.60
2018-04-25T16:54:02.662Z,5.10
2018-04-25T16:56:29.296Z,3.80
2018-04-25T16:58:55.923Z,4.95
2018-04-25T17:01:22.559Z,4.68
2018-04-25T17:03:49.193Z,4.90
2018-04-25T17:06:16.058Z,4.22
2018-04-25T17:08:42.715Z,4.25
2018-04-25T17:11:09.359Z,5.12
2018-04-25T17:13:35.974Z,4.50
2018-04-25T17:16:02.648Z,4.10
2018-04-25T17:18:29.942Z,4.47
2018-04-25T17:20:58.338Z,4.35
2018-04-25T17:23:24.975Z,4.57
2018-04-25T17:25:51.617Z,4.60
2018-04-25T17:28:18.275Z,4.03
2018-04-25T17:30:44.907Z,4.70
2018-04-25T17:33:11.534Z,4.30
2018-04-25T17:35:38.150Z,5.12
2018-04-25T17:38:04.813Z,4.05
2018-04-25T17:40:31.431Z,3.55
2018-04-25T17:42:58.092Z,4.60
2018-04-25T17:45:24.718Z,4.10
2018-04-25T17:47:51.362Z,4.12
2018-04-25T17:50:18.907Z,4.18
2018-04-25T17:52:45.565Z,5.10
2018-04-25T17:55:12.199Z,4.57
2018-04-25T17:57:38.917Z,4.30
2018-04-25T18:00:05.546Z,3.55
2018-04-25T18:02:32.215Z,4.78
2018-04-25T18:04:58.838Z,4.40
2018-04-25T18:07:26.210Z,4.87
2018-04-25T18:09:52.838Z,5.68
2018-04-25T18:12:19.513Z,5.00
2018-04-25T18:14:46.172Z,5.25
2018-04-25T18:17:12.894Z,5.20
2018-04-25T18:19:39.493Z,6.22
2018-04-25T18:22:06.933Z,5.15
2018-04-25T18:24:33.563Z,4.72
2018-04-25T18:27:00.223Z,4.45
2018-04-25T18:29:29.142Z,4.60
2018-04-25T18:31:56.862Z,5.00
2018-04-25T18:34:23.662Z,4.95
2018-04-25T18:36:50.417Z,4.37
2018-04-25T18:39:17.196Z,4.80
2018-04-25T18:41:44.301Z,4.28
2018-04-25T18:44:10.985Z,5.10
2018-04-25T18:46:37.772Z,4.00
2018-04-25T18:49:04.465Z,4.20
2018-04-25T18:51:31.217Z,4.45
2018-04-25T18:53:57.992Z,4.50
2018-04-25T18:56:24.762Z,4.57
2018-04-25T18:58:51.677Z,4.78
2018-04-25T19:01:18.422Z,3.90
2018-04-25T19:03:45.222Z,4.70
2018-04-25T19:06:12.615Z,4.70
2018-04-25T19:08:39.834Z,5.28
2018-04-25T19:11:06.615Z,5.22
2018-04-25T19:13:33.499Z,5.10
2018-04-25T19:16:00.311Z,4.62
2018-04-25T19:18:52.011Z,4.37
2018-04-25T19:21:18.885Z,5.15
2018-04-25T19:23:46.388Z,4.97
2018-04-25T19:26:13.685Z,6.55
2018-04-25T19:28:41.586Z,5.35
2018-04-25T19:31:08.298Z,6.20
2018-04-25T19:33:35.065Z,5.00
2018-04-25T19:36:01.811Z,4.65
2018-04-25T19:38:28.454Z,5.30
2018-04-25T19:40:55.312Z,5.00
2018-04-25T19:43:22.057Z,5.72
2018-04-25T19:45:51.640Z,5.50
2018-04-25T19:48:18.475Z,4.82
2018-04-25T19:50:46.528Z,5.50
2018-04-25T19:53:13.398Z,4.70
2018-04-25T19:55:40.216Z,5.15
2018-04-25T19:58:07.033Z,4.60
2018-04-25T20:00:33.841Z,4.43
2018-04-25T20:03:00.509Z,4.90
2018-04-25T20:05:27.218Z,4.72
2018-04-25T20:07:53.854Z,4.70
2018-04-25T20:10:20.486Z,4.55
2018-04-25T20:12:47.127Z,3.53
2018-04-25T20:15:13.746Z,3.95
2018-04-25T20:17:40.386Z,4.10
2018-04-25T20:20:07.015Z,4.32
2018-04-25T20:22:33.663Z,4.43
2018-04-25T20:25:00.302Z,4.25
2018-04-25T20:27:26.934Z,4.35
2018-04-25T20:29:53.556Z,4.30
2018-04-25T20:32:20.183Z,3.97
2018-04-25T20:34:46.841Z,3.92
2018-04-25T20:37:13.464Z,4.60
2018-04-25T20:39:40.119Z,3.50
2018-04-25T20:42:06.771Z,3.03
2018-04-25T20:44:33.369Z,3.00
2018-04-25T20:47:00.004Z,2.80
2018-04-25T20:49:26.655Z,3.65
2018-04-25T20:51:53.304Z,3.20
2018-04-25T20:54:19.927Z,3.35
2018-04-25T20:56:46.551Z,3.20
2018-04-25T20:59:13.198Z,3.62
2018-04-25T21:01:40.471Z,3.80
2018-04-25T21:04:07.091Z,3.60
2018-04-25T21:06:33.729Z,3.45
2018-04-25T21:09:00.359Z,3.75
2018-04-25T21:11:26.970Z,5.10
2018-04-25T21:13:53.632Z,4.00
2018-04-25T21:16:20.241Z,4.85
2018-04-25T21:18:46.883Z,4.78
2018-04-25T21:21:13.500Z,4.75
2018-04-25T21:23:40.126Z,4.20
2018-04-25T21:26:06.751Z,3.90
2018-04-25T21:28:33.374Z,3.83
2018-04-25T21:31:00.012Z,4.03
2018-04-25T21:33:26.646Z,4.62
2018-04-25T21:35:53.267Z,4.37
2018-04-25T21:38:19.908Z,4.10
2018-04-25T21:40:46.531Z,4.25
2018-04-25T21:43:13.165Z,4.35
2018-04-25T21:45:39.791Z,4.82
2018-04-25T21:48:07.156Z,3.87
2018-04-25T21:50:33.797Z,3.90
2018-04-25T21:53:00.402Z,4.05
2018-04-25T21:55:27.027Z,4.65
2018-04-25T21:57:53.650Z,5.47
2018-04-25T22:00:20.281Z,5.45
2018-04-25T22:02:46.895Z,5.87
2018-04-25T22:05:13.511Z,5.80
2018-04-25T22:07:40.156Z,5.35
2018-04-25T22:10:06.759Z,5.10
2018-04-25T22:12:33.418Z,5.40
2018-04-25T22:15:00.034Z,5.85
2018-04-25T22:17:26.670Z,6.40
2018-04-25T22:19:53.295Z,6.65
2018-04-25T22:22:19.917Z,4.93
2018-04-25T22:24:46.554Z,5.12
2018-04-25T22:27:13.163Z,5.12
2018-04-25T22:29:39.799Z,5.30
2018-04-25T22:32:06.403Z,5.47
2018-04-25T22:34:33.030Z,4.40
2018-04-25T22:36:59.715Z,4.60
2018-04-25T22:39:26.354Z,4.90
2018-04-25T22:41:52.966Z,5.03
2018-04-25T22:44:19.590Z,4.85
2018-04-25T22:46:46.202Z,4.62
2018-04-25T22:49:12.878Z,5.43
2018-04-25T22:51:39.506Z,5.40
2018-04-25T22:54:06.118Z,4.95
2018-04-25T22:56:32.769Z,4.55
2018-04-25T22:58:59.381Z,4.20
2018-04-25T23:01:26.019Z,5.00
2018-04-25T23:03:52.643Z,5.00
2018-04-25T23:06:19.276Z,6.00
2018-04-25T23:08:45.913Z,5.97
2018-04-25T23:11:12.551Z,5.20
2018-04-25T23:13:39.338Z,4.65
2018-04-25T23:16:05.954Z,4.45
2018-04-25T23:18:32.584Z,5.28
2018-04-25T23:20:59.214Z,4.95
2018-04-25T23:23:25.818Z,5.05
2018-04-25T23:25:52.458Z,5.80
2018-04-25T23:28:19.090Z,6.07
2018-04-25T23:30:45.698Z,4.68
2018-04-25T23:33:12.337Z,4.60
2018-04-25T23:35:38.953Z,5.20
2018-04-25T23:38:05.578Z,4.45
2018-04-25T23:40:32.190Z,5.15
2018-04-25T23:42:58.815Z,7.25
2018-04-25T23:45:25.437Z,5.35
2018-04-25T23:47:52.082Z,5.95
2018-04-25T23:50:18.699Z,7.18
2018-04-25T23:52:45.319Z,7.90
2018-04-25T23:55:11.929Z,8.15
2018-04-25T23:57:38.578Z,8.68
